.
WxDataArchive / Data Records for 2010-01-04
2010-01-03 January 2010 2010-01-05

Data Records for Monday, 04 January 2010

Time	Temp	Chill	HIndex	Humid	Dewpt	 Wind 	HiWind	WindDir	Rain 	Barom 
-----	----	-----	------	-----	-----	------	------	-------	-----	----- 
00:00	19.7	19.7	19.7	74	12.8	1	3	338	0.00	30.240 
00:05	19.7	19.7	19.7	73	12.5	1	4	270	0.00	30.240 
00:10	19.9	19.9	19.9	73	12.7	1	5	292	0.00	30.240 
00:15	19.9	19.9	19.9	73	12.7	1	5	292	0.00	30.234 
00:20	20.0	20.0	20.0	73	12.8	2	6	315	0.00	30.234 
00:25	20.0	20.0	20.0	73	12.8	1	4	315	0.00	30.234 
00:30	20.0	20.0	20.0	73	12.8	1	2	0	0.00	30.235 
00:35	20.2	20.2	20.2	73	13.0	1	4	315	0.00	30.235 
00:40	20.2	20.2	20.2	72	12.6	1	4	292	0.00	30.235 
00:45	20.2	20.2	20.2	72	12.6	1	3	315	0.00	30.234 
00:50	20.2	20.2	20.2	72	12.6	1	3	248	0.00	30.234 
00:55	20.2	20.2	20.2	72	12.6	1	2	315	0.00	30.234 
01:00	20.0	20.0	20.0	72	12.5	1	3	292	0.00	30.231 
01:05	20.0	20.0	20.0	72	12.5	1	3	292	0.00	30.231 
01:10	20.0	20.0	20.0	72	12.5	1	3	248	0.00	30.231 
01:15	20.0	20.0	20.0	73	12.8	0	2	248	0.00	30.225 
01:20	20.0	20.0	20.0	73	12.8	1	2	248	0.00	30.225 
01:25	20.0	20.0	20.0	73	12.8	0	2	248	0.00	30.225 
01:30	20.0	20.0	20.0	73	12.8	0	2	248	0.00	30.221 
01:35	20.0	20.0	20.0	73	12.8	0	3	338	0.00	30.221 
01:40	20.2	20.2	20.2	73	13.0	0	1	338	0.00	30.221 
01:45	20.2	20.2	20.2	73	13.0	1	3	338	0.00	30.221 
01:50	20.3	20.3	20.3	73	13.1	1	3	315	0.00	30.221 
01:55	20.3	20.3	20.3	73	13.1	1	2	248	0.00	30.221 
02:00	20.5	20.5	20.5	73	13.2	0	3	338	0.00	30.220 
02:05	20.6	20.6	20.6	74	13.7	0	3	0	0.00	30.220 
02:10	20.6	20.6	20.6	74	13.7	1	3	315	0.00	30.220 
02:15	20.8	20.8	20.8	74	13.8	1	4	338	0.00	30.218 
02:20	21.0	21.0	21.0	74	14.0	1	3	315	0.00	30.218 
02:25	21.0	21.0	21.0	74	14.0	1	4	292	0.00	30.218 
02:30	21.1	21.1	21.1	74	14.1	1	3	270	0.00	30.218 
02:35	21.1	21.1	21.1	74	14.1	1	2	270	0.00	30.218 
02:40	21.1	21.1	21.1	74	14.1	1	4	270	0.00	30.218 
02:45	21.1	21.1	21.1	75	14.4	1	3	270	0.00	30.219 
02:50	21.1	21.1	21.1	75	14.4	1	4	270	0.00	30.219 
02:55	21.3	21.3	21.3	75	14.6	1	4	270	0.00	30.219 
03:00	21.4	21.4	21.4	75	14.7	1	4	338	0.00	30.218 
03:05	21.4	21.4	21.4	75	14.7	1	3	338	0.00	30.218 
03:10	21.6	21.6	21.6	75	14.9	1	4	338	0.00	30.218 
03:15	21.6	21.6	21.6	75	14.9	1	4	315	0.00	30.217 
03:20	21.8	21.8	21.8	75	15.1	2	7	270	0.00	30.217 
03:25	21.8	21.8	21.8	75	15.1	1	5	338	0.00	30.217 
03:30	21.8	21.8	21.8	76	15.4	1	4	292	0.00	30.215 
03:35	21.8	21.8	21.8	76	15.4	1	2	315	0.00	30.215 
03:40	21.8	21.8	21.8	76	15.4	1	3	338	0.00	30.215 
03:45	21.8	21.8	21.8	76	15.4	1	6	270	0.00	30.211 
03:50	21.8	21.8	21.8	77	15.7	1	4	292	0.00	30.211 
03:55	21.8	21.8	21.8	77	15.7	2	5	315	0.00	30.211 
04:00	21.8	21.8	21.8	77	15.7	1	6	315	0.00	30.204 
04:05	21.8	21.8	21.8	77	15.7	1	4	315	0.00	30.204 
04:10	21.6	21.6	21.6	78	15.8	1	5	270	0.00	30.204 
04:15	21.6	21.6	21.6	78	15.8	1	3	270	0.00	30.204 
04:20	21.6	21.6	21.6	79	16.1	1	3	248	0.00	30.204 
04:25	21.6	21.6	21.6	80	16.4	1	3	248	0.00	30.204 
04:30	21.4	21.4	21.4	80	16.2	1	4	248	0.00	30.202 
04:35	21.4	21.4	21.4	81	16.5	1	2	315	0.00	30.202 
04:40	21.4	21.4	21.4	81	16.5	1	4	338	0.00	30.202 
04:45	21.4	21.4	21.4	81	16.5	1	3	248	0.00	30.196 
04:50	21.4	21.4	21.4	81	16.5	1	3	292	0.00	30.196 
04:55	21.3	21.3	21.3	81	16.4	1	4	248	0.00	30.196 
05:00	21.4	21.4	21.4	81	16.5	1	4	270	0.00	30.191 
05:05	21.4	21.4	21.4	81	16.5	1	3	338	0.00	30.191 
05:10	21.4	21.4	21.4	81	16.5	1	5	292	0.00	30.191 
05:15	21.4	21.4	21.4	81	16.5	1	3	292	0.00	30.191 
05:20	21.4	21.4	21.4	81	16.5	1	3	248	0.00	30.191 
05:25	21.3	21.3	21.3	81	16.4	1	3	248	0.00	30.191 
05:30	21.3	21.3	21.3	81	16.4	0	3	225	0.00	30.191 
05:35	21.1	21.1	21.1	81	16.2	1	3	225	0.00	30.191 
05:40	21.0	21.0	21.0	82	16.4	1	4	270	0.00	30.191 
05:45	20.8	20.8	20.8	82	16.2	1	2	270	0.00	30.190 
05:50	20.6	20.6	20.6	83	16.3	0	2	270	0.00	30.190 
05:55	20.6	20.6	20.6	83	16.3	1	3	270	0.00	30.190 
06:00	20.5	20.5	20.5	83	16.2	1	3	270	0.00	30.190 
06:05	20.5	20.5	20.5	84	16.4	0	3	270	0.00	30.190 
06:10	20.3	20.3	20.3	84	16.3	0	2	270	0.00	30.190 
06:15	20.3	20.3	20.3	84	16.3	1	3	270	0.00	30.192 
06:20	20.3	20.3	20.3	84	16.3	1	2	270	0.00	30.192 
06:25	20.3	20.3	20.3	84	16.3	1	3	270	0.00	30.192 
06:30	20.3	20.3	20.3	84	16.3	1	3	270	0.00	30.191 
06:35	20.3	20.3	20.3	84	16.3	1	4	292	0.00	30.191 
06:40	20.3	20.3	20.3	85	16.5	1	3	315	0.00	30.191 
06:45	20.3	20.3	20.3	85	16.5	0	2	315	0.00	30.192 
06:50	20.3	20.3	20.3	85	16.5	0	2	315	0.00	30.192 
06:55	20.3	20.3	20.3	85	16.5	1	3	315	0.00	30.192 
07:00	20.3	20.3	20.3	85	16.5	1	4	270	0.00	30.189 
07:05	20.3	20.3	20.3	85	16.5	1	2	338	0.00	30.189 
07:10	20.3	20.3	20.3	85	16.5	1	3	248	0.00	30.189 
07:15	20.3	20.3	20.3	85	16.5	1	3	248	0.00	30.188 
07:20	20.5	20.5	20.5	85	16.7	1	4	248	0.00	30.188 
07:25	20.5	20.5	20.5	85	16.7	1	3	315	0.00	30.188 
07:30	20.5	20.5	20.5	85	16.7	1	3	248	0.00	30.188 
07:35	20.5	20.5	20.5	85	16.7	1	3	248	0.00	30.188 
07:40	20.5	20.5	20.5	85	16.7	1	3	248	0.00	30.188 
07:45	20.5	20.5	20.5	85	16.7	1	3	248	0.00	30.189 
07:50	20.5	20.5	20.5	85	16.7	1	3	248	0.00	30.189 
07:55	20.5	20.5	20.5	85	16.7	1	3	248	0.00	30.189 
08:00	20.5	20.5	20.5	85	16.7	0	2	248	0.00	30.190 
08:05	20.5	20.5	20.5	85	16.7	0	2	248	0.00	30.190 
08:10	20.0	20.0	20.0	85	16.2	1	3	248	0.00	30.190 
08:15	19.7	19.7	19.7	85	15.9	1	4	248	0.00	30.191 
08:20	19.5	19.5	19.5	85	15.7	1	3	248	0.00	30.191 
08:25	19.4	19.4	19.4	85	15.6	2	3	248	0.00	30.191 
08:30	19.4	19.4	19.4	85	15.6	2	4	248	0.00	30.192 
08:35	19.2	19.2	19.2	85	15.4	2	4	248	0.00	30.192 
08:40	19.2	19.2	19.2	85	15.4	1	3	248	0.00	30.192 
08:45	19.4	19.4	19.4	85	15.6	1	4	248	0.00	30.192 
08:50	19.2	19.2	19.2	85	15.4	1	5	248	0.00	30.192 
08:55	19.2	19.2	19.2	85	15.4	1	5	248	0.00	30.192 
09:00	19.2	19.2	19.2	85	15.4	2	5	248	0.00	30.193 
09:05	19.1	19.1	19.1	84	15.1	2	4	248	0.00	30.193 
09:10	19.1	19.1	19.1	84	15.1	2	4	248	0.00	30.193 
09:15	19.1	19.1	19.1	84	15.1	2	5	248	0.00	30.191 
09:20	18.9	18.9	18.9	84	14.9	2	6	248	0.00	30.191 
09:25	18.9	18.9	18.9	84	14.9	2	5	270	0.00	30.191 
09:30	19.1	19.1	19.1	84	15.1	2	4	270	0.00	30.192 
09:35	19.2	19.2	19.2	84	15.2	1	3	0	0.00	30.192 
09:40	19.2	19.2	19.2	84	15.2	2	3	248	0.00	30.192 
09:45	19.4	19.4	19.4	84	15.4	2	4	248	0.00	30.192 
09:50	19.7	19.7	19.7	84	15.7	1	4	248	0.00	30.192 
09:55	19.9	19.9	19.9	84	15.9	1	4	248	0.00	30.192 
10:00	20.2	20.2	20.2	84	16.2	2	5	270	0.00	30.188 
10:05	20.3	20.3	20.3	84	16.3	1	3	270	0.00	30.188 
10:10	20.6	20.6	20.6	84	16.5	1	3	270	0.00	30.188 
10:15	20.8	20.8	20.8	83	16.5	2	4	248	0.00	30.184 
10:20	21.0	21.0	21.0	83	16.7	1	3	248	0.00	30.184 
10:25	21.3	21.3	21.3	83	17.0	1	3	248	0.00	30.184 
10:30	21.6	21.6	21.6	83	17.3	2	5	248	0.00	30.186 
10:35	21.8	21.8	21.8	82	17.2	2	4	270	0.00	30.186 
10:40	21.9	21.9	21.9	82	17.3	2	4	248	0.00	30.186 
10:45	22.1	22.1	22.1	82	17.5	2	4	248	0.00	30.184 
10:50	22.2	22.2	22.2	82	17.6	1	3	292	0.00	30.184 
10:55	22.4	22.4	22.4	82	17.8	2	3	270	0.00	30.184 
11:00	22.7	22.7	22.7	81	17.8	2	4	270	0.00	30.182 
11:05	22.9	22.9	22.9	81	18.0	1	3	248	0.00	30.182 
11:10	23.2	23.2	23.2	81	18.3	2	3	248	0.00	30.182 
11:15	23.2	23.2	23.2	81	18.3	2	4	270	0.00	30.172 
11:20	23.5	23.5	23.5	81	18.5	2	4	248	0.00	30.172 
11:25	23.8	23.8	23.8	81	18.8	1	5	248	0.00	30.172 
11:30	23.8	23.8	23.8	81	18.8	2	3	270	0.00	30.168 
11:35	23.9	23.9	23.9	81	18.9	2	4	270	0.00	30.168 
11:40	23.9	23.9	23.9	81	18.9	2	4	270	0.00	30.168 
11:45	23.9	23.9	23.9	81	18.9	2	3	270	0.00	30.168 
11:50	24.1	24.1	24.1	81	19.1	1	4	292	0.00	30.168 
11:55	24.1	24.1	24.1	81	19.1	2	4	270	0.00	30.168 
12:00	24.1	24.1	24.1	82	19.4	1	3	338	0.00	30.158 
12:05	24.2	24.2	24.2	82	19.5	2	5	248	0.00	30.158 
12:10	24.1	24.1	24.1	82	19.4	2	3	248	0.00	30.158 
12:15	24.1	24.1	24.1	82	19.4	2	4	248	0.00	30.152 
12:20	24.1	24.1	24.1	82	19.4	2	5	248	0.00	30.152 
12:25	23.8	23.8	23.8	82	19.1	3	7	270	0.00	30.152 
12:30	23.8	23.8	23.8	83	19.4	2	5	225	0.00	30.144 
12:35	23.8	23.8	23.8	83	19.4	2	3	248	0.00	30.144 
12:40	23.8	23.8	23.8	83	19.4	1	5	248	0.00	30.144 
12:45	23.8	23.8	23.8	83	19.4	1	3	248	0.00	30.138 
12:50	23.8	23.8	23.8	83	19.4	2	4	248	0.00	30.138 
12:55	23.8	23.8	23.8	83	19.4	2	5	270	0.00	30.138 
13:00	23.9	23.9	23.9	83	19.5	2	5	248	0.00	30.134 
13:05	23.8	23.8	23.8	82	19.1	2	5	270	0.00	30.134 
13:10	23.9	23.9	23.9	82	19.2	1	3	292	0.00	30.134 
13:15	23.9	23.9	23.9	83	19.5	1	3	248	0.00	30.126 
13:20	24.1	24.1	24.1	82	19.4	1	4	248	0.00	30.126 
13:25	24.1	24.1	24.1	82	19.4	2	4	248	0.00	30.126 
13:30	23.9	23.9	23.9	82	19.2	2	4	248	0.00	30.123 
13:35	23.8	23.8	23.8	82	19.1	2	5	270	0.00	30.123 
13:40	23.6	23.6	23.6	82	18.9	2	4	225	0.00	30.123 
13:45	23.6	23.6	23.6	82	18.9	3	7	292	0.00	30.122 
13:50	23.8	23.8	23.8	82	19.1	2	4	270	0.00	30.122 
13:55	23.8	23.8	23.8	82	19.1	2	5	292	0.00	30.122 
14:00	23.8	23.8	23.8	82	19.1	2	4	270	0.00	30.121 
14:05	23.9	23.9	23.9	82	19.2	2	6	248	0.00	30.121 
14:10	24.1	24.1	24.1	82	19.4	2	4	248	0.00	30.121 
14:15	24.2	24.2	24.2	82	19.5	2	7	248	0.00	30.121 
14:20	24.2	24.2	24.2	82	19.5	2	4	292	0.00	30.121 
14:25	24.4	24.4	24.4	82	19.7	2	5	248	0.00	30.121 
14:30	24.4	24.4	24.4	82	19.7	2	6	270	0.00	30.121 
14:35	24.4	24.4	24.4	82	19.7	2	4	270	0.00	30.121 
14:40	24.5	24.5	24.5	83	20.1	2	4	248	0.00	30.121 
14:45	24.4	24.4	24.4	83	20.0	2	7	292	0.00	30.119 
14:50	24.4	24.4	24.4	83	20.0	2	4	248	0.00	30.119 
14:55	24.1	24.1	24.1	83	19.7	3	6	270	0.00	30.119 
15:00	24.1	24.1	24.1	83	19.7	3	5	270	0.00	30.120 
15:05	24.1	24.1	24.1	84	20.0	2	4	270	0.00	30.120 
15:10	24.1	24.1	24.1	84	20.0	2	6	270	0.00	30.120 
15:15	23.9	23.9	23.9	84	19.8	2	4	270	0.00	30.118 
15:20	23.9	23.9	23.9	84	19.8	3	4	270	0.00	30.118 
15:25	24.1	24.1	24.1	84	20.0	2	6	248	0.00	30.118 
15:30	24.2	24.2	24.2	84	20.1	2	5	248	0.00	30.118 
15:35	24.1	24.1	24.1	84	20.0	3	6	270	0.00	30.118 
15:40	23.9	23.9	23.9	84	19.8	2	5	270	0.00	30.118 
15:45	24.1	24.1	24.1	84	20.0	2	5	315	0.00	30.119 
15:50	24.1	24.1	24.1	84	20.0	2	9	270	0.00	30.119 
15:55	24.1	24.1	24.1	84	20.0	2	9	270	0.00	30.119 
16:00	23.9	23.9	23.9	83	19.5	2	5	270	0.00	30.119 
16:05	23.8	23.8	23.8	83	19.4	3	5	270	0.00	30.119 
16:10	23.8	23.8	23.8	83	19.4	2	5	248	0.00	30.119 
16:15	23.8	23.8	23.8	84	19.7	2	6	248	0.00	30.121 
16:20	23.6	23.6	23.6	84	19.5	2	4	248	0.00	30.121 
16:25	23.6	23.6	23.6	84	19.5	2	5	248	0.00	30.121 
16:30	23.5	23.5	23.5	84	19.4	2	5	225	0.00	30.121 
16:35	23.5	23.5	23.5	84	19.4	2	7	270	0.00	30.121 
16:40	23.3	23.3	23.3	84	19.2	2	5	270	0.00	30.121 
16:45	23.3	23.3	23.3	85	19.5	1	5	270	0.00	30.122 
16:50	23.2	23.2	23.2	84	19.1	2	5	270	0.00	30.122 
16:55	23.0	23.0	23.0	84	18.9	2	6	270	0.00	30.122 
17:00	22.9	22.9	22.9	84	18.8	2	4	248	0.00	30.122 
17:05	22.9	22.9	22.9	85	19.1	2	5	248	0.00	30.122 
17:10	22.7	22.7	22.7	85	18.9	2	3	248	0.00	30.122 
17:15	22.7	22.7	22.7	85	18.9	2	5	270	0.00	30.122 
17:20	22.5	22.5	22.5	85	18.7	2	5	270	0.00	30.122 
17:25	22.5	22.5	22.5	83	18.1	2	4	270	0.00	30.122 
17:30	22.4	22.4	22.4	85	18.6	2	4	270	0.00	30.124 
17:35	22.4	22.4	22.4	86	18.9	2	5	248	0.00	30.124 
17:40	22.2	22.2	22.2	86	18.7	2	4	248	0.00	30.124 
17:45	22.2	22.2	22.2	86	18.7	2	4	270	0.00	30.123 
17:50	22.2	22.2	22.2	86	18.7	3	5	270	0.00	30.123 
17:55	22.2	22.2	22.2	86	18.7	2	6	270	0.00	30.123 
18:00	22.2	22.2	22.2	86	18.7	2	5	248	0.00	30.123 
18:05	22.1	22.1	22.1	86	18.6	2	4	270	0.00	30.123 
18:10	22.1	22.1	22.1	87	18.8	2	6	248	0.00	30.123 
18:15	22.1	22.1	22.1	87	18.8	2	6	270	0.00	30.123 
18:20	21.9	21.9	21.9	87	18.6	2	5	270	0.00	30.123 
18:25	21.9	21.9	21.9	87	18.6	2	5	248	0.00	30.123 
18:30	21.9	21.9	21.9	87	18.6	2	7	270	0.00	30.124 
18:35	21.8	21.8	21.8	87	18.5	2	6	270	0.00	30.124 
18:40	21.8	21.8	21.8	87	18.5	3	6	270	0.00	30.124 
18:45	21.8	21.8	21.8	86	18.3	3	9	248	0.00	30.125 
18:50	21.6	21.6	21.6	86	18.1	3	7	270	0.00	30.125 
18:55	21.6	21.6	21.6	86	18.1	3	6	270	0.00	30.125 
19:00	21.4	21.4	21.4	86	17.9	2	5	270	0.00	30.130 
19:05	21.4	21.4	21.4	86	17.9	3	6	270	0.00	30.130 
19:10	21.3	21.3	21.3	86	17.8	2	6	248	0.00	30.130 
19:15	21.1	21.1	21.1	86	17.6	3	6	248	0.00	30.128 
19:20	21.1	21.1	21.1	86	17.6	3	5	270	0.00	30.128 
19:25	21.1	21.1	21.1	86	17.6	3	6	270	0.00	30.128 
19:30	21.0	21.0	21.0	86	17.5	2	5	270	0.00	30.129 
19:35	21.0	21.0	21.0	86	17.5	3	4	270	0.00	30.129 
19:40	21.0	21.0	21.0	86	17.5	2	4	270	0.00	30.129 
19:45	20.8	20.8	20.8	86	17.3	3	6	270	0.00	30.130 
19:50	20.8	20.8	20.8	86	17.3	3	5	270	0.00	30.130 
19:55	20.6	20.6	20.6	85	16.8	3	5	270	0.00	30.130 
20:00	20.5	20.5	20.5	85	16.7	3	7	270	0.00	30.127 
20:05	20.5	20.5	20.5	85	16.7	3	5	270	0.00	30.127 
20:10	20.5	20.5	20.5	85	16.7	3	6	270	0.00	30.127 
20:15	20.3	20.3	20.3	85	16.5	3	6	270	0.00	30.130 
20:20	20.3	20.3	20.3	85	16.5	3	6	270	0.00	30.130 
20:25	20.2	20.2	20.2	85	16.4	2	4	270	0.00	30.130 
20:30	20.2	20.2	20.2	85	16.4	3	5	270	0.00	30.133 
20:35	20.0	20.0	20.0	85	16.2	2	4	270	0.00	30.133 
20:40	19.9	19.9	19.9	85	16.1	3	5	248	0.00	30.133 
20:45	19.9	19.9	19.9	85	16.1	2	6	292	0.00	30.136 
20:50	19.9	19.9	19.9	85	16.1	3	5	270	0.00	30.136 
20:55	19.9	19.9	19.9	85	16.1	2	5	292	0.00	30.136 
21:00	19.9	19.9	19.9	85	16.1	2	4	270	0.00	30.138 
21:05	19.9	19.9	19.9	85	16.1	2	4	270	0.00	30.138 
21:10	19.7	19.7	19.7	85	15.9	2	4	270	0.00	30.138 
21:15	19.7	19.7	19.7	85	15.9	2	4	270	0.00	30.138 
21:20	19.7	19.7	19.7	85	15.9	2	4	270	0.00	30.138 
21:25	19.9	19.9	19.9	85	16.1	2	5	248	0.00	30.138 
21:30	19.9	19.9	19.9	85	16.1	2	4	270	0.00	30.137 
21:35	19.7	19.7	19.7	85	15.9	2	4	270	0.00	30.137 
21:40	19.7	19.7	19.7	85	15.9	2	3	270	0.00	30.137 
21:45	19.9	19.9	19.9	85	16.1	2	5	270	0.00	30.134 
21:50	19.9	19.9	19.9	85	16.1	2	4	248	0.00	30.134 
21:55	19.9	19.9	19.9	85	16.1	2	5	248	0.00	30.134 
22:00	19.9	19.9	19.9	85	16.1	2	5	270	0.00	30.133 
22:05	19.9	19.9	19.9	85	16.1	2	5	270	0.00	30.133 
22:10	20.0	20.0	20.0	85	16.2	2	4	270	0.00	30.133 
22:15	20.0	20.0	20.0	85	16.2	2	7	248	0.00	30.130 
22:20	20.2	20.2	20.2	85	16.4	2	4	270	0.00	30.130 
22:25	20.2	20.2	20.2	85	16.4	2	5	270	0.00	30.130 
22:30	20.2	20.2	20.2	85	16.4	2	5	248	0.00	30.127 
22:35	20.3	20.3	20.3	85	16.5	2	4	248	0.00	30.127 
22:40	20.3	20.3	20.3	85	16.5	2	3	248	0.00	30.127 
22:45	20.3	20.3	20.3	85	16.5	2	3	248	0.00	30.126 
22:50	20.3	20.3	20.3	85	16.5	2	5	248	0.00	30.126 
22:55	20.3	20.3	20.3	85	16.5	1	4	248	0.00	30.126 
23:00	20.5	20.5	20.5	85	16.7	2	4	270	0.00	30.122 
23:05	20.5	20.5	20.5	85	16.7	1	3	270	0.00	30.122 
23:10	20.5	20.5	20.5	85	16.7	1	4	270	0.00	30.122 
23:15	20.6	20.6	20.6	85	16.8	1	4	248	0.00	30.122 
23:20	20.6	20.6	20.6	85	16.8	1	2	248	0.00	30.122 
23:25	20.6	20.6	20.6	85	16.8	1	4	270	0.00	30.122 
23:30	20.6	20.6	20.6	86	17.1	1	4	248	0.00	30.121 
23:35	20.8	20.8	20.8	86	17.3	2	4	270	0.00	30.121 
23:40	20.8	20.8	20.8	86	17.3	1	4	248	0.00	30.121 
23:45	21.0	21.0	21.0	86	17.5	1	4	248	0.00	30.120 
23:50	21.0	21.0	21.0	86	17.5	1	4	225	0.00	30.120 
23:55	21.0	21.0	21.0	86	17.5	1	3	248	0.00	30.120 

CoCoRaHS
IN-AL-39
A2 Web Hosting
Creative Commons License
GoDaddy
search engine by freefind advanced

loaded 2018-11-14 04:39:22 • last modified 2010-11-18 10:43:29
Privacy PolicyDisclaimer
• wx.awcolley.com is powered by PmWiki v.2002016 •
• all content (unless otherwise noted) © 2018 A W Colley